Vega Sagittarius — A8RK2 — position and weather

sailwx.info

Track history (hours):
 
Tides and Currents Weather Stations Pressure Air Temp Water Temp Dewpoint Dewpoint Depression Visibility Wind Speed Wind Dir Waves Ship Positions

Vega Sagittarius

Last reported at 2017-Sep-17 11:25 UTC. Time now 2017-Sep-19 15:18 UTC.
Position N 26°04' W 080°03'.

Length 139 m; draft 7.1 m.

Type: Ship (hazmat cat A). MMSI: 636091667.

Date/timePositionNaut miles runAvg speedWind from/ knotsBaromVisibWave heightAir tempDewpointWater temp
2017-Sep-17 11:25N 26°04' W 080°03'4 9.5
2017-Sep-17 11:00N 26°06' W 080°07'1 2.5
2017-Sep-17 10:29N 26°04' W 080°07'0 0.0
2017-Sep-17 09:59N 26°04' W 080°07'0 0.0
2017-Sep-17 09:29N 26°04' W 080°07'0 0.0
2017-Sep-17 08:59N 26°04' W 080°07'0 0.0
2017-Sep-17 08:29N 26°04' W 080°07'0 0.0
2017-Sep-17 07:59N 26°04' W 080°07'0 0.0
2017-Sep-17 07:29N 26°04' W 080°07'0 0.0
2017-Sep-17 06:59N 26°04' W 080°07'0 0.0
2017-Sep-17 06:29N 26°04' W 080°07'0 0.0
2017-Sep-17 05:59N 26°04' W 080°07'0 0.0
2017-Sep-17 05:29N 26°04' W 080°07'0 0.0
2017-Sep-17 04:59N 26°04' W 080°07'0 0.0
2017-Sep-17 04:29N 26°04' W 080°07'0 0.0
2017-Sep-17 04:00N 26°04' W 080°07'1 2.2
2017-Sep-17 03:30N 26°05' W 080°07'3 6.7
2017-Sep-17 03:00N 26°06' W 080°03'2 3.3
2017-Sep-17 02:30N 26°07' W 080°04'0 0.1
2017-Sep-17 00:12N 26°07' W 080°05'0 0.0
2017-Sep-16 23:57N 26°07' W 080°05'0 0.0
2017-Sep-16 19:31N 26°07' W 080°05'0 0.0
2017-Sep-16 16:33N 26°07' W 080°05'0 0.0
2017-Sep-16 16:24N 26°07' W 080°05'0 0.0
2017-Sep-16 15:54N 26°07' W 080°05'0 0.0
2017-Sep-16 15:24N 26°07' W 080°05'0 0.0
2017-Sep-16 15:00N 26°07' W 080°05'0 0.0
2017-Sep-16 14:29N 26°07' W 080°05'0 0.0
2017-Sep-16 13:53N 26°07' W 080°05'0 0.1
2017-Sep-16 13:23N 26°07' W 080°05'0 0.0
2017-Sep-16 12:29N 26°07' W 080°05'0 0.1
2017-Sep-16 11:56N 26°07' W 080°05'0 0.0
2017-Sep-16 11:11N 26°07' W 080°05'0 0.0
2017-Sep-16 10:59N 26°07' W 080°05'0 0.0
2017-Sep-16 10:26N 26°07' W 080°05'0 0.0
2017-Sep-16 09:59N 26°07' W 080°05'0 0.0
2017-Sep-16 09:29N 26°07' W 080°05'0 0.0
2017-Sep-16 08:59N 26°07' W 080°05'0 0.0
2017-Sep-16 08:26N 26°07' W 080°05'0 0.0
2017-Sep-16 07:59N 26°07' W 080°05'0 0.0
2017-Sep-16 07:29N 26°07' W 080°05'0 0.0
2017-Sep-16 06:56N 26°07' W 080°05'0 0.0
2017-Sep-16 06:29N 26°07' W 080°05'0 0.0
2017-Sep-16 05:56N 26°07' W 080°05'0 0.0
2017-Sep-16 05:17N 26°07' W 080°05'0 0.0
2017-Sep-16 04:47N 26°07' W 080°05'0 0.1
2017-Sep-16 04:26N 26°07' W 080°05'0 0.0
2017-Sep-16 03:53N 26°07' W 080°05'0 0.0
2017-Sep-16 03:23N 26°07' W 080°05'0 0.0
2017-Sep-16 02:50N 26°07' W 080°05'0 0.0
2017-Sep-16 02:26N 26°07' W 080°05'0 0.0
2017-Sep-16 01:47N 26°07' W 080°05'0 0.0
2017-Sep-16 01:29N 26°07' W 080°05'0 0.0
2017-Sep-16 00:59N 26°07' W 080°05'0 0.0
2017-Sep-16 00:26N 26°07' W 080°05'0 0.0
2017-Sep-15 23:56N 26°07' W 080°05'0 0.0
2017-Sep-15 23:23N 26°07' W 080°05'0 0.0
2017-Sep-15 22:59N 26°07' W 080°05'0 0.0
2017-Sep-15 22:23N 26°07' W 080°05'0 0.0
2017-Sep-15 21:59N 26°07' W 080°05'0 0.0
2017-Sep-15 21:29N 26°07' W 080°05'0 0.0
2017-Sep-15 20:59N 26°07' W 080°05'0 0.0
2017-Sep-15 20:29N 26°07' W 080°05'0 0.0
2017-Sep-15 19:56N 26°07' W 080°05'0 0.0
2017-Sep-15 19:29N 26°07' W 080°05'0 0.0
2017-Sep-15 18:59N 26°07' W 080°05'0 0.0
2017-Sep-15 18:29N 26°07' W 080°05'0 0.0
2017-Sep-15 17:59N 26°07' W 080°05'0 0.0
2017-Sep-15 17:26N 26°07' W 080°05'0 0.1
2017-Sep-15 16:56N 26°07' W 080°05'0 0.1
2017-Sep-15 16:29N 26°07' W 080°05'0 0.0
2017-Sep-15 15:59N 26°07' W 080°05'0 0.1
2017-Sep-15 15:26N 26°07' W 080°05'0 0.0
2017-Sep-15 14:47N 26°07' W 080°05'0 0.1
2017-Sep-15 14:14N 26°07' W 080°05'0 0.1
2017-Sep-15 13:50N 26°07' W 080°05'0 0.0
2017-Sep-15 13:23N 26°07' W 080°05'0 0.0
2017-Sep-15 12:44N 26°07' W 080°05'0 0.0
2017-Sep-15 12:23N 26°07' W 080°05'0 0.0
2017-Sep-15 11:53N 26°07' W 080°05'0 0.0
2017-Sep-15 11:23N 26°07' W 080°05'0 0.0
2017-Sep-15 10:50N 26°07' W 080°05'0 0.0
2017-Sep-15 10:20N 26°07' W 080°05'0 0.0
2017-Sep-15 09:53N 26°07' W 080°05'0 0.0
2017-Sep-15 09:20N 26°07' W 080°05'0 0.0
2017-Sep-15 08:50N 26°07' W 080°05'0 0.0
2017-Sep-15 08:23N 26°07' W 080°05'0 0.1
2017-Sep-15 07:59N 26°07' W 080°05'0 0.0
2017-Sep-15 07:29N 26°07' W 080°05'0 0.0
2017-Sep-15 06:56N 26°07' W 080°05'0 0.1
2017-Sep-15 06:29N 26°07' W 080°05'0 0.0
2017-Sep-15 05:59N 26°07' W 080°05'0 0.1
2017-Sep-15 05:29N 26°07' W 080°04'0 0.0
2017-Sep-15 04:59N 26°07' W 080°04'0 0.0
2017-Sep-15 04:29N 26°07' W 080°04'0 0.0
2017-Sep-15 03:56N 26°07' W 080°04'0 0.0
2017-Sep-15 03:29N 26°07' W 080°04'0 0.0
2017-Sep-15 02:59N 26°07' W 080°04'0 0.0
2017-Sep-15 02:26N 26°07' W 080°04'0 0.4
2017-Sep-15 01:59N 26°07' W 080°05'0 0.0
2017-Sep-15 01:17N 26°07' W 080°05'0 0.0
2017-Sep-15 00:44N 26°07' W 080°05'0 0.1
2017-Sep-15 00:14N 26°07' W 080°05'0 0.0
2017-Sep-14 23:53N 26°07' W 080°05'0 0.1
2017-Sep-14 23:23N 26°07' W 080°05'0 0.0
2017-Sep-14 22:50N 26°07' W 080°05'0 0.1
2017-Sep-14 22:20N 26°07' W 080°05'0 0.0
2017-Sep-14 21:50N 26°07' W 080°05'0 0.0
2017-Sep-14 21:23N 26°07' W 080°05'0 0.0
2017-Sep-14 20:53N 26°07' W 080°05'0 0.0
2017-Sep-14 20:20N 26°07' W 080°05'0 0.0
2017-Sep-14 19:53N 26°07' W 080°05'0 0.0
2017-Sep-14 19:23N 26°07' W 080°05'0 0.0
2017-Sep-14 18:59N 26°07' W 080°05'0 0.0
2017-Sep-14 18:26N 26°07' W 080°05'0 0.0
2017-Sep-14 17:53N 26°07' W 080°05'  
Track history (hours):
 
Tides and Currents Weather Stations Pressure Air Temp Water Temp Dewpoint Dewpoint Depression Visibility Wind Speed Wind Dir Waves Ship Positions

Vega Sagittarius

Last reported at 2017-Sep-17 11:25 UTC. Time now 2017-Sep-19 15:18 UTC.
Position N 26°04' W 080°03'.

Length 139 m; draft 7.1 m.

Type: Ship (hazmat cat A). MMSI: 636091667.

Date/timePositionNaut miles runAvg speedWind from/ knotsBaromVisibWave heightAir tempDewpointWater temp
2017-Sep-17 11:25N 26°04' W 080°03'4 9.5
2017-Sep-17 11:00N 26°06' W 080°07'1 2.5
2017-Sep-17 10:29N 26°04' W 080°07'0 0.0
2017-Sep-17 09:59N 26°04' W 080°07'0 0.0
2017-Sep-17 09:29N 26°04' W 080°07'0 0.0
2017-Sep-17 08:59N 26°04' W 080°07'0 0.0
2017-Sep-17 08:29N 26°04' W 080°07'0 0.0
2017-Sep-17 07:59N 26°04' W 080°07'0 0.0
2017-Sep-17 07:29N 26°04' W 080°07'0 0.0
2017-Sep-17 06:59N 26°04' W 080°07'0 0.0
2017-Sep-17 06:29N 26°04' W 080°07'0 0.0
2017-Sep-17 05:59N 26°04' W 080°07'0 0.0
2017-Sep-17 05:29N 26°04' W 080°07'0 0.0
2017-Sep-17 04:59N 26°04' W 080°07'0 0.0
2017-Sep-17 04:29N 26°04' W 080°07'0 0.0
2017-Sep-17 04:00N 26°04' W 080°07'1 2.2
2017-Sep-17 03:30N 26°05' W 080°07'3 6.7
2017-Sep-17 03:00N 26°06' W 080°03'2 3.3
2017-Sep-17 02:30N 26°07' W 080°04'0 0.1
2017-Sep-17 00:12N 26°07' W 080°05'0 0.0
2017-Sep-16 23:57N 26°07' W 080°05'0 0.0
2017-Sep-16 19:31N 26°07' W 080°05'0 0.0
2017-Sep-16 16:33N 26°07' W 080°05'0 0.0
2017-Sep-16 16:24N 26°07' W 080°05'0 0.0
2017-Sep-16 15:54N 26°07' W 080°05'0 0.0
2017-Sep-16 15:24N 26°07' W 080°05'0 0.0
2017-Sep-16 15:00N 26°07' W 080°05'0 0.0
2017-Sep-16 14:29N 26°07' W 080°05'0 0.0
2017-Sep-16 13:53N 26°07' W 080°05'0 0.1
2017-Sep-16 13:23N 26°07' W 080°05'0 0.0
2017-Sep-16 12:29N 26°07' W 080°05'0 0.1
2017-Sep-16 11:56N 26°07' W 080°05'0 0.0
2017-Sep-16 11:11N 26°07' W 080°05'0 0.0
2017-Sep-16 10:59N 26°07' W 080°05'0 0.0
2017-Sep-16 10:26N 26°07' W 080°05'0 0.0
2017-Sep-16 09:59N 26°07' W 080°05'0 0.0
2017-Sep-16 09:29N 26°07' W 080°05'0 0.0
2017-Sep-16 08:59N 26°07' W 080°05'0 0.0
2017-Sep-16 08:26N 26°07' W 080°05'0 0.0
2017-Sep-16 07:59N 26°07' W 080°05'0 0.0
2017-Sep-16 07:29N 26°07' W 080°05'0 0.0
2017-Sep-16 06:56N 26°07' W 080°05'0 0.0
2017-Sep-16 06:29N 26°07' W 080°05'0 0.0
2017-Sep-16 05:56N 26°07' W 080°05'0 0.0
2017-Sep-16 05:17N 26°07' W 080°05'0 0.0
2017-Sep-16 04:47N 26°07' W 080°05'0 0.1
2017-Sep-16 04:26N 26°07' W 080°05'0 0.0
2017-Sep-16 03:53N 26°07' W 080°05'0 0.0
2017-Sep-16 03:23N 26°07' W 080°05'0 0.0
2017-Sep-16 02:50N 26°07' W 080°05'0 0.0
2017-Sep-16 02:26N 26°07' W 080°05'0 0.0
2017-Sep-16 01:47N 26°07' W 080°05'0 0.0
2017-Sep-16 01:29N 26°07' W 080°05'0 0.0
2017-Sep-16 00:59N 26°07' W 080°05'0 0.0
2017-Sep-16 00:26N 26°07' W 080°05'0 0.0
2017-Sep-15 23:56N 26°07' W 080°05'0 0.0
2017-Sep-15 23:23N 26°07' W 080°05'0 0.0
2017-Sep-15 22:59N 26°07' W 080°05'0 0.0
2017-Sep-15 22:23N 26°07' W 080°05'0 0.0
2017-Sep-15 21:59N 26°07' W 080°05'0 0.0
2017-Sep-15 21:29N 26°07' W 080°05'0 0.0
2017-Sep-15 20:59N 26°07' W 080°05'0 0.0
2017-Sep-15 20:29N 26°07' W 080°05'0 0.0
2017-Sep-15 19:56N 26°07' W 080°05'0 0.0
2017-Sep-15 19:29N 26°07' W 080°05'0 0.0
2017-Sep-15 18:59N 26°07' W 080°05'0 0.0
2017-Sep-15 18:29N 26°07' W 080°05'0 0.0
2017-Sep-15 17:59N 26°07' W 080°05'0 0.0
2017-Sep-15 17:26N 26°07' W 080°05'0 0.1
2017-Sep-15 16:56N 26°07' W 080°05'0 0.1
2017-Sep-15 16:29N 26°07' W 080°05'0 0.0
2017-Sep-15 15:59N 26°07' W 080°05'0 0.1
2017-Sep-15 15:26N 26°07' W 080°05'0 0.0
2017-Sep-15 14:47N 26°07' W 080°05'0 0.1
2017-Sep-15 14:14N 26°07' W 080°05'0 0.1
2017-Sep-15 13:50N 26°07' W 080°05'0 0.0
2017-Sep-15 13:23N 26°07' W 080°05'0 0.0
2017-Sep-15 12:44N 26°07' W 080°05'0 0.0
2017-Sep-15 12:23N 26°07' W 080°05'0 0.0
2017-Sep-15 11:53N 26°07' W 080°05'0 0.0
2017-Sep-15 11:23N 26°07' W 080°05'0 0.0
2017-Sep-15 10:50N 26°07' W 080°05'0 0.0
2017-Sep-15 10:20N 26°07' W 080°05'0 0.0
2017-Sep-15 09:53N 26°07' W 080°05'0 0.0
2017-Sep-15 09:20N 26°07' W 080°05'0 0.0
2017-Sep-15 08:50N 26°07' W 080°05'0 0.0
2017-Sep-15 08:23N 26°07' W 080°05'0 0.1
2017-Sep-15 07:59N 26°07' W 080°05'0 0.0
2017-Sep-15 07:29N 26°07' W 080°05'0 0.0
2017-Sep-15 06:56N 26°07' W 080°05'0 0.1
2017-Sep-15 06:29N 26°07' W 080°05'0 0.0
2017-Sep-15 05:59N 26°07' W 080°05'0 0.1
2017-Sep-15 05:29N 26°07' W 080°04'0 0.0
2017-Sep-15 04:59N 26°07' W 080°04'0 0.0
2017-Sep-15 04:29N 26°07' W 080°04'0 0.0
2017-Sep-15 03:56N 26°07' W 080°04'0 0.0
2017-Sep-15 03:29N 26°07' W 080°04'0 0.0
2017-Sep-15 02:59N 26°07' W 080°04'0 0.0
2017-Sep-15 02:26N 26°07' W 080°04'0 0.4
2017-Sep-15 01:59N 26°07' W 080°05'0 0.0
2017-Sep-15 01:17N 26°07' W 080°05'0 0.0
2017-Sep-15 00:44N 26°07' W 080°05'0 0.1
2017-Sep-15 00:14N 26°07' W 080°05'0 0.0
2017-Sep-14 23:53N 26°07' W 080°05'0 0.1
2017-Sep-14 23:23N 26°07' W 080°05'0 0.0
2017-Sep-14 22:50N 26°07' W 080°05'0 0.1
2017-Sep-14 22:20N 26°07' W 080°05'0 0.0
2017-Sep-14 21:50N 26°07' W 080°05'0 0.0
2017-Sep-14 21:23N 26°07' W 080°05'0 0.0
2017-Sep-14 20:53N 26°07' W 080°05'0 0.0
2017-Sep-14 20:20N 26°07' W 080°05'0 0.0
2017-Sep-14 19:53N 26°07' W 080°05'0 0.0
2017-Sep-14 19:23N 26°07' W 080°05'0 0.0
2017-Sep-14 18:59N 26°07' W 080°05'0 0.0
2017-Sep-14 18:26N 26°07' W 080°05'0 0.0
2017-Sep-14 17:53N 26°07' W 080°05'  

Dump ship's entire track history